Time;durP1;ratioP1;P1;durP2;ratioP2;P2;SDS_P1;SDS_P2;PMS_P1;PMS_P2;Temp;Humidity;BMP_temperature;BMP_pressure;BME280_temperature;BME280_humidity;BME280_pressure;Samples;Min_cycle;Max_cycle;Signal;HPM_P1;HPM_P2
2023/05/17 00:00:52;;;;;;;22.95;5.85;;;10.10;99.90;;;;;;5024953;28;20053;-73
2023/05/17 00:03:18;;;;;;;19.45;6.30;;;10.10;99.90;;;;;;5026006;28;20044;-74
2023/05/17 00:05:44;;;;;;;17.73;5.85;;;10.10;99.90;;;;;;5026103;28;20065;-73
2023/05/17 00:08:10;;;;;;;19.55;6.72;;;10.10;99.90;;;;;;5030927;28;20049;-74
2023/05/17 00:10:35;;;;;;;22.50;7.18;;;10.00;99.90;;;;;;5031724;28;20178;-73
2023/05/17 00:13:02;;;;;;;19.25;6.43;;;10.00;99.90;;;;;;5029135;28;20052;-74
2023/05/17 00:15:28;;;;;;;23.13;6.37;;;10.00;99.90;;;;;;5021777;28;20951;-73
2023/05/17 00:17:54;;;;;;;20.88;6.78;;;9.90;99.90;;;;;;5028191;28;20049;-74
2023/05/17 00:20:20;;;;;;;23.92;6.78;;;10.00;99.90;;;;;;5023959;28;20107;-73
2023/05/17 00:22:46;;;;;;;19.58;6.13;;;10.00;99.90;;;;;;5024081;28;20076;-74
2023/05/17 00:25:12;;;;;;;21.05;5.90;;;10.00;99.90;;;;;;5024095;28;20199;-73
2023/05/17 00:27:38;;;;;;;18.17;5.88;;;10.00;99.90;;;;;;5019591;28;20187;-74
2023/05/17 00:30:04;;;;;;;21.85;6.22;;;10.00;99.90;;;;;;5026246;28;20772;-74
2023/05/17 00:32:33;;;;;;;21.58;7.32;;;10.10;99.90;;;;;;5025972;28;20055;-74
2023/05/17 00:34:58;;;;;;;22.35;6.20;;;10.10;99.90;;;;;;5020801;28;20052;-74
2023/05/17 00:37:24;;;;;;;20.52;6.28;;;10.10;99.90;;;;;;5017781;28;20046;-74
2023/05/17 00:39:51;;;;;;;19.42;6.55;;;10.00;99.90;;;;;;5025850;28;20072;-74
2023/05/17 00:42:17;;;;;;;19.33;6.18;;;10.10;99.90;;;;;;5018616;28;20049;-73
2023/05/17 00:44:43;;;;;;;14.52;4.90;;;10.00;99.90;;;;;;5018418;28;20059;-73
2023/05/17 00:47:08;;;;;;;16.98;5.03;;;10.00;99.90;;;;;;5028308;28;20252;-73
2023/05/17 00:49:34;;;;;;;16.23;5.15;;;10.00;99.90;;;;;;5026176;28;20622;-73
2023/05/17 00:52:00;;;;;;;16.90;4.43;;;10.00;99.90;;;;;;5028070;28;20402;-73
2023/05/17 00:54:26;;;;;;;19.10;4.78;;;9.90;99.90;;;;;;5024345;28;20052;-74
2023/05/17 00:56:53;;;;;;;17.98;5.40;;;9.90;99.90;;;;;;5024307;28;20049;-74
2023/05/17 00:59:21;;;;;;;19.58;5.07;;;9.80;99.90;;;;;;5021071;28;20133;-73
2023/05/17 01:01:47;;;;;;;17.00;4.45;;;9.80;99.90;;;;;;5023400;28;20052;-73
2023/05/17 01:04:13;;;;;;;19.83;4.88;;;9.80;99.90;;;;;;5024964;28;20048;-74
2023/05/17 01:06:39;;;;;;;17.70;4.28;;;9.80;99.90;;;;;;5024599;28;20049;-74
2023/05/17 01:09:05;;;;;;;18.77;4.25;;;9.70;99.90;;;;;;5029686;28;20041;-73
2023/05/17 01:11:55;;;;;;;18.33;4.18;;;9.70;99.90;;;;;;5022388;28;20562;-74
2023/05/17 01:14:36;;;;;;;22.00;4.63;;;9.70;99.90;;;;;;5026045;28;20076;-74
2023/05/17 01:17:07;;;;;;;16.35;4.22;;;9.70;99.90;;;;;;5016880;28;20504;-73
2023/05/17 01:19:33;;;;;;;19.25;4.13;;;9.60;99.90;;;;;;5022731;28;20503;-73
2023/05/17 01:22:16;;;;;;;19.77;4.55;;;9.60;99.90;;;;;;5024535;28;20107;-74
2023/05/17 01:25:22;;;;;;;20.85;3.88;;;9.50;99.90;;;;;;5020517;28;20135;-74
2023/05/17 01:27:49;;;;;;;16.95;4.18;;;9.50;99.90;;;;;;5020491;28;20068;-73
2023/05/17 01:30:17;;;;;;;17.73;4.43;;;9.40;99.90;;;;;;5028110;28;20045;-74
2023/05/17 01:32:42;;;;;;;;;;;9.40;99.90;;;;;;5026751;28;20064;-74
2023/05/17 01:35:10;;;;;;;20.88;3.83;;;9.40;99.90;;;;;;5024579;28;19925;-74
2023/05/17 01:37:35;;;;;;;;;;;9.40;99.90;;;;;;5022418;28;20128;-73
2023/05/17 01:40:01;;;;;;;19.50;4.13;;;9.30;99.90;;;;;;5016905;28;19929;-73
2023/05/17 01:42:31;;;;;;;22.45;3.67;;;9.30;99.90;;;;;;5027559;28;20108;-73
2023/05/17 01:45:22;;;;;;;17.75;4.15;;;9.30;99.90;;;;;;5025227;28;20045;-73
2023/05/17 01:48:26;;;;;;;16.50;3.92;;;9.30;99.90;;;;;;5025361;28;20053;-74
2023/05/17 01:50:55;;;;;;;20.52;4.00;;;9.20;99.90;;;;;;4992829;28;20065;-74
2023/05/17 01:53:29;;;;;;;20.45;4.00;;;9.20;99.90;;;;;;5021769;28;20538;-73
2023/05/17 01:56:09;;;;;;;19.10;4.00;;;9.20;99.90;;;;;;5029300;28;20040;-74
2023/05/17 01:58:43;;;;;;;19.50;3.75;;;9.20;99.90;;;;;;5030363;28;20064;-73
2023/05/17 02:01:11;;;;;;;21.63;4.32;;;9.20;99.90;;;;;;5032233;28;20079;-74
2023/05/17 02:03:37;;;;;;;19.23;4.35;;;9.10;99.90;;;;;;5034673;28;20060;-73
2023/05/17 02:06:02;;;;;;;17.58;3.65;;;9.20;99.90;;;;;;5031435;28;20048;-73
2023/05/17 02:08:28;;;;;;;15.82;4.07;;;9.10;99.90;;;;;;5030114;28;20061;-72
2023/05/17 02:10:54;;;;;;;22.27;4.43;;;9.10;99.90;;;;;;5023998;28;20056;-74
2023/05/17 02:13:20;;;;;;;20.92;3.70;;;9.10;99.90;;;;;;5032405;28;20049;-74
2023/05/17 02:15:45;;;;;;;20.08;4.25;;;9.00;99.90;;;;;;5026364;28;20104;-73
2023/05/17 02:18:11;;;;;;;17.92;4.15;;;9.00;99.90;;;;;;5030894;28;20122;-74
2023/05/17 02:20:37;;;;;;;17.08;3.83;;;9.10;99.90;;;;;;5024793;28;20047;-73
2023/05/17 02:23:03;;;;;;;15.88;3.55;;;9.00;99.90;;;;;;5032485;28;20068;-73
2023/05/17 02:25:28;;;;;;;17.13;4.22;;;9.00;99.90;;;;;;5021570;28;20041;-73
2023/05/17 02:27:54;;;;;;;16.48;3.95;;;9.00;99.90;;;;;;5028835;28;20094;-74
2023/05/17 02:30:21;;;;;;;12.68;3.88;;;9.00;99.90;;;;;;5026444;28;20123;-73
2023/05/17 02:32:47;;;;;;;20.30;3.80;;;9.00;99.90;;;;;;5031789;28;20072;-73
2023/05/17 02:35:13;;;;;;;15.98;4.50;;;9.10;99.90;;;;;;5021427;28;20063;-74
2023/05/17 02:37:38;;;;;;;17.83;4.00;;;9.00;99.90;;;;;;5030225;28;20053;-74
2023/05/17 02:40:08;;;;;;;17.75;3.83;;;9.00;99.90;;;;;;5019296;28;20076;-74
2023/05/17 02:42:34;;;;;;;19.50;3.45;;;9.00;99.90;;;;;;5020513;28;20037;-73
2023/05/17 02:45:00;;;;;;;24.00;4.43;;;9.00;99.90;;;;;;5024884;28;20049;-73
2023/05/17 02:47:26;;;;;;;21.63;3.92;;;9.00;99.90;;;;;;5029126;28;20045;-73
2023/05/17 02:49:51;;;;;;;21.25;4.10;;;8.90;99.90;;;;;;5031190;28;22760;-74
2023/05/17 02:52:17;;;;;;;17.60;4.30;;;8.90;99.90;;;;;;5019407;28;20045;-73
2023/05/17 02:54:43;;;;;;;19.75;3.72;;;8.90;99.90;;;;;;5029346;28;20480;-73
2023/05/17 02:57:09;;;;;;;18.67;3.97;;;8.90;99.90;;;;;;5029389;28;20088;-74
2023/05/17 02:59:35;;;;;;;20.88;4.68;;;8.90;99.90;;;;;;5029282;28;20049;-74
2023/05/17 03:02:01;;;;;;;18.40;4.28;;;8.80;99.90;;;;;;5026481;28;20044;-74
2023/05/17 03:04:26;;;;;;;18.90;4.20;;;8.80;99.90;;;;;;5024083;28;20045;-73
2023/05/17 03:06:52;;;;;;;18.17;3.90;;;8.80;99.90;;;;;;5031672;28;20056;-75
2023/05/17 03:09:18;;;;;;;19.70;3.92;;;8.80;99.90;;;;;;5027563;28;20519;-73
2023/05/17 03:11:44;;;;;;;20.17;3.63;;;8.60;99.90;;;;;;5024602;28;20547;-73
2023/05/17 03:14:09;;;;;;;19.77;4.55;;;8.70;99.90;;;;;;5022532;28;20400;-74
2023/05/17 03:16:35;;;;;;;16.90;3.88;;;8.70;99.90;;;;;;5025213;28;20552;-73
2023/05/17 03:19:01;;;;;;;21.95;4.10;;;8.70;99.90;;;;;;5024889;28;20114;-73
2023/05/17 03:21:26;;;;;;;19.33;3.83;;;8.60;99.90;;;;;;5021014;28;20094;-73
2023/05/17 03:23:52;;;;;;;18.15;3.78;;;8.60;99.90;;;;;;5030022;28;20466;-73
2023/05/17 03:26:18;;;;;;;17.27;3.80;;;8.60;99.90;;;;;;5027935;28;20470;-73
2023/05/17 03:28:44;;;;;;;18.65;3.90;;;8.60;99.90;;;;;;5028201;28;20870;-74
2023/05/17 03:31:10;;;;;;;20.70;4.00;;;8.60;99.90;;;;;;5020754;28;20519;-73
2023/05/17 03:33:36;;;;;;;18.63;3.75;;;8.60;99.90;;;;;;5040141;28;20061;-74
2023/05/17 03:36:02;;;;;;;23.92;3.92;;;8.50;99.90;;;;;;5022058;28;20500;-73
2023/05/17 03:38:28;;;;;;;18.20;3.70;;;8.50;99.90;;;;;;5025903;28;20128;-73
2023/05/17 03:40:54;;;;;;;17.95;3.95;;;8.50;99.90;;;;;;5027205;28;20041;-72
2023/05/17 03:43:20;;;;;;;14.75;3.90;;;8.50;99.90;;;;;;5021779;28;20083;-73
2023/05/17 03:45:45;;;;;;;23.45;4.55;;;8.40;99.90;;;;;;5028406;28;20060;-75
2023/05/17 03:48:11;;;;;;;23.35;3.90;;;8.40;99.90;;;;;;5028373;28;20057;-74
2023/05/17 03:50:39;;;;;;;22.10;4.70;;;8.40;99.90;;;;;;5029235;28;20101;-73
2023/05/17 03:53:05;;;;;;;20.17;4.28;;;8.50;99.90;;;;;;5025487;28;20124;-72
2023/05/17 03:55:31;;;;;;;23.58;4.22;;;8.40;99.90;;;;;;5027930;28;20072;-73
2023/05/17 03:57:57;;;;;;;25.65;4.47;;;8.40;99.90;;;;;;5019995;28;20032;-73
2023/05/17 04:00:23;;;;;;;16.80;3.63;;;8.40;99.90;;;;;;5026877;28;20064;-74
2023/05/17 04:02:50;;;;;;;20.92;3.53;;;8.40;99.90;;;;;;5027103;28;20053;-73
2023/05/17 04:05:16;;;;;;;19.15;4.05;;;8.40;99.90;;;;;;5026858;28;20079;-72
2023/05/17 04:07:42;;;;;;;18.73;4.13;;;8.40;99.90;;;;;;5023922;28;20079;-74
2023/05/17 04:10:08;;;;;;;18.63;3.70;;;8.40;99.90;;;;;;5015746;28;20124;-74
2023/05/17 04:12:37;;;;;;;16.70;4.00;;;8.40;99.90;;;;;;5026764;28;20554;-73
2023/05/17 04:15:03;;;;;;;19.17;3.88;;;8.40;99.90;;;;;;5029764;28;20143;-72
2023/05/17 04:17:29;;;;;;;20.20;3.73;;;8.40;99.90;;;;;;5028447;28;20487;-74
2023/05/17 04:19:55;;;;;;;18.27;3.60;;;8.50;99.90;;;;;;5022937;28;20041;-74
2023/05/17 04:22:21;;;;;;;17.98;3.83;;;8.50;99.90;;;;;;5023803;28;20045;-73
2023/05/17 04:24:46;;;;;;;22.05;4.28;;;8.50;99.90;;;;;;5030827;28;20152;-74
2023/05/17 04:27:12;;;;;;;23.13;4.47;;;8.60;99.90;;;;;;5023396;28;20164;-73
2023/05/17 04:29:39;;;;;;;20.08;4.25;;;8.60;99.90;;;;;;5023047;28;20094;-73
2023/05/17 04:32:06;;;;;;;26.23;3.95;;;8.70;99.90;;;;;;5027638;28;22080;-73
2023/05/17 04:34:32;;;;;;;18.92;3.50;;;8.70;99.90;;;;;;5039762;28;20183;-73
2023/05/17 04:36:58;;;;;;;20.52;4.28;;;8.70;99.90;;;;;;5026147;28;20048;-73
2023/05/17 04:39:23;;;;;;;14.77;3.45;;;8.70;99.90;;;;;;5022189;28;20571;-74
2023/05/17 04:41:49;;;;;;;23.70;3.85;;;8.80;99.90;;;;;;5021633;28;20108;-73
2023/05/17 04:44:15;;;;;;;15.88;3.30;;;8.80;99.90;;;;;;5018789;28;20056;-73
2023/05/17 04:46:42;;;;;;;15.60;3.38;;;8.80;99.90;;;;;;5025594;28;20057;-73
2023/05/17 04:49:09;;;;;;;18.42;4.18;;;8.80;99.90;;;;;;5018944;28;20396;-74
2023/05/17 04:51:35;;;;;;;17.80;4.03;;;8.80;99.90;;;;;;5021701;28;20132;-73
2023/05/17 04:54:01;;;;;;;17.48;3.35;;;8.80;99.90;;;;;;5023246;28;20132;-73
2023/05/17 04:56:28;;;;;;;18.27;3.72;;;8.80;99.90;;;;;;5026107;28;20042;-75
2023/05/17 04:58:53;;;;;;;19.23;3.42;;;8.90;99.90;;;;;;5018580;28;20045;-73
2023/05/17 05:01:19;;;;;;;17.67;3.70;;;8.90;99.90;;;;;;5018440;28;20404;-73
2023/05/17 05:03:45;;;;;;;17.58;3.55;;;8.80;99.90;;;;;;5025246;28;20052;-74
2023/05/17 05:06:11;;;;;;;16.85;3.42;;;8.90;99.90;;;;;;5026102;28;20167;-73
2023/05/17 05:08:37;;;;;;;17.73;3.53;;;8.90;99.90;;;;;;5025777;28;20520;-73
2023/05/17 05:11:03;;;;;;;18.67;3.08;;;8.90;99.90;;;;;;5020135;28;20049;-73
2023/05/17 05:13:31;;;;;;;20.73;3.28;;;8.90;99.90;;;;;;5026901;28;20157;-73
2023/05/17 05:15:56;;;;;;;11.07;2.90;;;8.90;99.90;;;;;;5024581;28;20064;-72
2023/05/17 05:18:22;;;;;;;18.30;3.10;;;8.90;99.90;;;;;;5024596;28;20060;-73
2023/05/17 05:20:48;;;;;;;18.63;3.30;;;8.90;99.90;;;;;;5027678;28;20107;-73
2023/05/17 05:23:14;;;;;;;12.43;2.92;;;8.90;99.90;;;;;;5020035;28;20420;-73
2023/05/17 05:25:39;;;;;;;15.05;3.10;;;9.00;99.90;;;;;;5023480;28;20084;-73
2023/05/17 05:28:05;;;;;;;13.85;3.03;;;9.00;99.90;;;;;;5023443;28;20079;-72
2023/05/17 05:30:31;;;;;;;12.55;2.63;;;9.10;99.90;;;;;;5021796;28;20955;-73
2023/05/17 05:32:57;;;;;;;18.92;3.13;;;9.10;99.90;;;;;;5021078;28;20473;-72
2023/05/17 05:35:28;;;;;;;16.33;2.35;;;9.10;99.90;;;;;;5031778;28;21717;-74
2023/05/17 05:37:58;;;;;;;12.00;2.83;;;9.20;99.90;;;;;;5032268;28;20504;-74
2023/05/17 05:40:24;;;;;;;12.35;2.78;;;9.20;99.90;;;;;;5031487;28;20895;-73
2023/05/17 05:42:49;;;;;;;14.75;2.90;;;9.30;99.90;;;;;;5036939;28;20069;-73
2023/05/17 05:45:15;;;;;;;17.08;3.05;;;9.30;99.90;;;;;;5032428;28;20143;-73
2023/05/17 05:47:41;;;;;;;13.48;2.50;;;9.30;99.90;;;;;;5031521;28;20393;-74
2023/05/17 05:50:07;;;;;;;12.00;2.67;;;9.30;99.90;;;;;;5029627;28;20038;-73
2023/05/17 05:52:33;;;;;;;14.63;2.33;;;9.30;99.90;;;;;;5034704;28;20068;-73
2023/05/17 05:54:59;;;;;;;15.65;2.60;;;9.30;99.90;;;;;;5033431;28;20052;-73
2023/05/17 05:57:25;;;;;;;12.68;2.70;;;9.40;99.90;;;;;;5039532;28;20103;-72
2023/05/17 05:59:50;;;;;;;12.20;2.85;;;9.40;99.90;;;;;;5026610;28;20064;-73
2023/05/17 06:02:16;;;;;;;12.25;1.92;;;9.50;99.90;;;;;;5027383;28;20819;-74
2023/05/17 06:04:42;;;;;;;16.60;2.58;;;9.50;99.90;;;;;;5027032;28;20037;-73
2023/05/17 06:07:08;;;;;;;10.52;2.20;;;9.50;99.90;;;;;;5024057;28;20052;-72
2023/05/17 06:09:34;;;;;;;11.00;2.30;;;9.60;99.90;;;;;;5031044;28;20095;-71
2023/05/17 06:12:00;;;;;;;12.02;2.00;;;9.50;99.90;;;;;;5029778;28;20052;-73
2023/05/17 06:14:26;;;;;;;11.30;1.98;;;9.50;99.90;;;;;;5026988;28;20048;-72
2023/05/17 06:16:51;;;;;;;13.55;2.40;;;9.60;99.90;;;;;;5033240;28;20056;-73
2023/05/17 06:19:18;;;;;;;9.68;2.17;;;9.70;99.90;;;;;;5034924;28;20919;-73
2023/05/17 06:21:44;;;;;;;12.93;1.95;;;9.80;99.90;;;;;;5038361;28;20053;-72
2023/05/17 06:24:10;;;;;;;14.68;2.20;;;9.80;99.90;;;;;;5029034;28;20049;-73
2023/05/17 06:26:36;;;;;;;9.23;1.70;;;9.90;99.90;;;;;;5032290;28;20122;-71
2023/05/17 06:29:02;;;;;;;12.38;2.40;;;9.90;99.90;;;;;;5030556;28;20443;-73
2023/05/17 06:31:28;;;;;;;13.70;2.08;;;9.90;99.90;;;;;;5033483;28;20068;-72
2023/05/17 06:33:54;;;;;;;10.55;2.55;;;9.90;99.90;;;;;;5028974;28;20048;-72
2023/05/17 06:36:19;;;;;;;10.57;1.83;;;9.90;99.90;;;;;;5027916;28;20534;-72
2023/05/17 06:38:45;;;;;;;8.50;1.98;;;9.90;99.90;;;;;;5029043;28;20057;-71
2023/05/17 06:41:11;;;;;;;11.30;1.98;;;10.00;99.90;;;;;;5024445;28;20037;-72
2023/05/17 06:43:36;;;;;;;12.15;2.08;;;10.10;99.90;;;;;;5029097;28;20523;-73
2023/05/17 06:46:02;;;;;;;13.15;2.63;;;10.10;99.90;;;;;;5033175;28;20748;-71
2023/05/17 06:48:28;;;;;;;10.20;1.95;;;10.10;99.90;;;;;;5020640;28;20048;-71
2023/05/17 06:50:53;;;;;;;9.52;1.70;;;10.20;99.90;;;;;;5033252;28;20440;-71
2023/05/17 06:53:19;;;;;;;12.82;2.28;;;10.30;99.90;;;;;;5032548;28;20496;-72
2023/05/17 06:55:45;;;;;;;10.80;2.00;;;10.30;99.90;;;;;;5033476;28;20049;-72
2023/05/17 06:58:11;;;;;;;10.82;1.90;;;10.40;99.90;;;;;;5031391;28;20055;-71
2023/05/17 07:00:36;;;;;;;7.57;1.70;;;10.40;99.90;;;;;;5034154;28;20136;-72
2023/05/17 07:03:02;;;;;;;15.90;2.40;;;10.50;99.90;;;;;;5024129;28;20107;-71
2023/05/17 07:05:29;;;;;;;8.13;2.00;;;10.50;99.90;;;;;;5029682;28;20049;-71
2023/05/17 07:07:56;;;;;;;11.63;2.08;;;10.50;99.90;;;;;;5033220;28;20052;-71
2023/05/17 07:10:22;;;;;;;8.93;1.95;;;10.50;99.90;;;;;;5034151;28;20041;-72
2023/05/17 07:12:48;;;;;;;11.63;2.25;;;10.50;99.90;;;;;;5032137;28;20130;-71
2023/05/17 07:15:13;;;;;;;11.82;2.10;;;10.50;99.90;;;;;;5030523;28;20139;-73
2023/05/17 07:17:39;;;;;;;10.38;1.90;;;10.50;99.90;;;;;;5030257;28;20448;-72
2023/05/17 07:20:05;;;;;;;13.57;2.35;;;10.50;99.90;;;;;;5028080;28;20048;-72
2023/05/17 07:22:31;;;;;;;8.27;1.90;;;10.50;99.90;;;;;;5027503;28;20060;-70
2023/05/17 07:24:56;;;;;;;9.05;2.08;;;10.50;99.90;;;;;;5027749;28;20102;-70
2023/05/17 07:27:22;;;;;;;10.75;2.22;;;10.50;99.90;;;;;;5025451;28;20049;-74
2023/05/17 07:29:48;;;;;;;8.35;2.30;;;10.40;99.90;;;;;;5027873;28;20048;-73
2023/05/17 07:32:14;;;;;;;8.50;2.53;;;10.50;99.90;;;;;;5027588;28;20057;-74
2023/05/17 07:34:40;;;;;;;9.68;2.15;;;10.60;99.90;;;;;;5031871;28;20057;-74
2023/05/17 07:37:06;;;;;;;9.70;2.60;;;10.70;99.90;;;;;;5023598;28;20049;-75
2023/05/17 07:39:31;;;;;;;12.95;2.65;;;10.80;99.90;;;;;;5021175;28;20099;-75
2023/05/17 07:41:57;;;;;;;14.45;3.30;;;10.90;99.80;;;;;;5021630;28;20179;-73
2023/05/17 07:44:23;;;;;;;11.85;2.67;;;10.90;99.80;;;;;;5022552;28;20045;-73
2023/05/17 07:46:48;;;;;;;15.88;3.30;;;11.00;99.80;;;;;;5015997;28;20455;-73
2023/05/17 07:49:14;;;;;;;17.00;3.22;;;11.00;99.80;;;;;;5018873;28;20052;-73
2023/05/17 07:51:40;;;;;;;13.57;3.30;;;11.00;99.40;;;;;;5027062;28;20052;-70
2023/05/17 07:54:05;;;;;;;12.20;2.75;;;11.10;98.80;;;;;;5026111;28;20404;-71
2023/05/17 07:56:32;;;;;;;14.30;2.80;;;11.00;98.80;;;;;;5027546;28;20083;-71
2023/05/17 07:58:58;;;;;;;13.70;2.53;;;11.00;98.70;;;;;;4999788;28;20037;-71
2023/05/17 08:01:24;;;;;;;12.68;3.30;;;11.00;99.10;;;;;;5024107;28;20054;-70
2023/05/17 08:03:50;;;;;;;16.65;3.67;;;11.00;99.00;;;;;;5027194;28;20072;-70
2023/05/17 08:06:16;;;;;;;11.30;2.78;;;11.10;99.30;;;;;;5020405;28;20076;-71
2023/05/17 08:08:42;;;;;;;13.93;2.90;;;11.10;99.00;;;;;;5018405;28;20049;-70
2023/05/17 08:11:09;;;;;;;14.52;3.13;;;11.20;99.10;;;;;;5020311;28;20063;-72
2023/05/17 08:13:35;;;;;;;14.20;2.70;;;11.20;99.50;;;;;;5018973;28;20766;-71
2023/05/17 08:16:02;;;;;;;14.02;3.20;;;11.40;99.50;;;;;;5021343;28;20052;-71
2023/05/17 08:18:31;;;;;;;12.88;3.30;;;11.50;99.10;;;;;;5020274;28;20423;-72
2023/05/17 08:20:57;;;;;;;17.48;3.63;;;11.60;98.80;;;;;;5018364;28;20049;-72
2023/05/17 08:23:23;;;;;;;12.07;3.15;;;11.60;98.60;;;;;;5014424;28;20099;-72
2023/05/17 08:25:48;;;;;;;10.77;2.80;;;11.60;98.30;;;;;;5029248;28;20049;-72
2023/05/17 08:28:14;;;;;;;15.60;3.13;;;11.60;98.60;;;;;;5029334;28;20076;-73
2023/05/17 08:30:40;;;;;;;15.00;3.40;;;11.50;98.00;;;;;;5017017;28;20128;-70
2023/05/17 08:33:08;;;;;;;15.18;3.55;;;11.50;98.00;;;;;;5019389;28;20046;-71
2023/05/17 08:35:35;;;;;;;16.13;3.53;;;11.50;98.10;;;;;;5023263;28;20049;-71
2023/05/17 08:38:00;;;;;;;16.85;3.97;;;11.50;98.60;;;;;;5025836;28;20039;-72
2023/05/17 08:40:27;;;;;;;15.75;4.10;;;11.50;98.60;;;;;;5016690;28;21749;-69
2023/05/17 08:42:52;;;;;;;13.35;3.30;;;11.60;98.80;;;;;;5017424;28;20492;-72
2023/05/17 08:45:18;;;;;;;17.25;3.65;;;11.60;99.30;;;;;;5014663;28;20037;-71
2023/05/17 08:47:45;;;;;;;16.13;4.05;;;11.60;98.90;;;;;;5016359;28;20052;-70
2023/05/17 08:50:11;;;;;;;17.08;3.83;;;11.50;98.80;;;;;;5021012;28;20057;-75
2023/05/17 08:52:39;;;;;;;15.60;3.67;;;11.50;98.50;;;;;;5015575;28;20056;-73
2023/05/17 08:55:06;;;;;;;;;;;11.40;98.10;;;;;;5020729;28;20052;-71
2023/05/17 08:57:37;;;;;;;14.80;3.13;;;11.30;98.50;;;;;;5015512;28;19920;-71
2023/05/17 09:00:11;;;;;;;13.93;3.50;;;11.30;98.70;;;;;;5020980;28;20048;-71
2023/05/17 09:02:37;;;;;;;12.35;2.90;;;11.20;98.60;;;;;;5023387;28;20037;-71
2023/05/17 09:05:05;;;;;;;15.13;3.40;;;11.30;98.40;;;;;;5019590;28;20041;-71
2023/05/17 09:07:31;;;;;;;14.88;3.17;;;11.30;98.30;;;;;;5024585;28;20049;-72
2023/05/17 09:09:57;;;;;;;14.20;3.40;;;11.30;98.30;;;;;;5024974;28;21067;-70
2023/05/17 09:12:22;;;;;;;16.30;3.47;;;11.40;98.00;;;;;;5030001;28;20075;-71
2023/05/17 09:14:48;;;;;;;17.08;3.47;;;11.50;98.50;;;;;;5020835;28;20037;-71
2023/05/17 09:17:19;;;;;;;13.07;3.05;;;11.50;98.40;;;;;;5018371;28;20403;-71
2023/05/17 09:19:46;;;;;;;9.90;2.22;;;11.60;97.90;;;;;;5025796;28;21242;-76
2023/05/17 09:22:14;;;;;;;15.43;3.38;;;11.60;96.90;;;;;;5031717;28;20485;-72
2023/05/17 09:24:41;;;;;;;10.40;2.72;;;11.60;96.50;;;;;;5027074;28;20060;-72
2023/05/17 09:27:07;;;;;;;13.63;2.65;;;11.70;95.70;;;;;;5027607;28;20488;-74
2023/05/17 09:29:33;;;;;;;10.77;2.70;;;11.80;95.20;;;;;;5029870;28;20076;-74
2023/05/17 09:32:12;;;;;;;14.50;3.10;;;11.80;95.20;;;;;;5030632;28;20033;-73
2023/05/17 09:34:39;;;;;;;16.58;3.90;;;11.90;95.50;;;;;;5031943;28;20056;-74
2023/05/17 09:37:11;;;;;;;9.77;2.97;;;11.90;95.90;;;;;;5030473;28;20615;-72
2023/05/17 09:39:36;;;;;;;13.73;2.60;;;11.90;94.20;;;;;;5024363;28;20049;-69
2023/05/17 09:42:03;;;;;;;18.38;3.58;;;12.00;94.10;;;;;;5050618;28;20531;-72
2023/05/17 09:44:29;;;;;;;10.70;2.80;;;12.00;93.60;;;;;;5024088;28;20045;-73
2023/05/17 09:46:57;;;;;;;11.88;3.05;;;11.90;92.90;;;;;;5027384;28;20041;-73
2023/05/17 09:49:27;;;;;;;10.45;2.67;;;11.90;93.60;;;;;;5027794;28;20041;-72
2023/05/17 09:51:54;;;;;;;15.13;3.00;;;12.00;93.80;;;;;;5019250;28;20400;-73
2023/05/17 09:54:19;;;;;;;13.40;2.90;;;12.00;93.70;;;;;;5021451;28;20045;-73
2023/05/17 09:56:53;;;;;;;12.10;3.00;;;12.10;93.90;;;;;;5021638;28;20154;-73
2023/05/17 09:59:20;;;;;;;11.60;2.85;;;12.10;93.40;;;;;;5030269;28;20049;-72
2023/05/17 10:01:49;;;;;;;13.23;3.00;;;12.10;92.90;;;;;;5026148;28;20516;-72
2023/05/17 10:04:19;;;;;;;14.75;3.13;;;12.00;92.70;;;;;;5032757;28;20056;-73
2023/05/17 10:06:45;;;;;;;14.18;3.10;;;12.10;93.70;;;;;;5031882;28;20057;-71
2023/05/17 10:09:15;;;;;;;13.55;3.25;;;12.10;93.60;;;;;;5031720;28;20049;-73
2023/05/17 10:11:45;;;;;;;15.55;2.92;;;12.20;93.30;;;;;;5022356;28;20053;-73
2023/05/17 10:14:17;;;;;;;11.07;2.70;;;12.30;93.80;;;;;;5038292;28;20060;-73
2023/05/17 10:16:44;;;;;;;16.45;3.30;;;12.40;92.80;;;;;;5037143;28;20128;-73
2023/05/17 10:19:13;;;;;;;18.02;3.42;;;12.50;93.40;;;;;;5032691;28;20041;-73
2023/05/17 10:21:41;;;;;;;11.45;2.83;;;12.60;92.50;;;;;;5036055;28;20038;-72
2023/05/17 10:24:08;;;;;;;15.60;3.20;;;12.50;92.90;;;;;;5038262;28;20072;-71
2023/05/17 10:26:35;;;;;;;12.43;3.15;;;12.60;93.00;;;;;;5032845;28;20044;-73
2023/05/17 10:29:02;;;;;;;14.50;2.80;;;12.50;92.40;;;;;;5027809;28;20128;-73
2023/05/17 10:31:29;;;;;;;;;;;12.30;91.90;;;;;;5026401;28;20159;-74
2023/05/17 10:33:55;;;;;;;18.02;3.58;;;12.40;91.90;;;;;;5021421;28;20285;-73
2023/05/17 10:36:23;;;;;;;15.52;3.00;;;12.40;92.80;;;;;;5045205;28;20041;-73
2023/05/17 10:38:50;;;;;;;13.20;3.33;;;12.50;93.00;;;;;;5033138;28;21108;-73
2023/05/17 10:41:18;;;;;;;15.95;3.15;;;12.60;92.80;;;;;;5021160;28;20057;-73
2023/05/17 10:43:45;;;;;;;9.80;2.78;;;12.60;92.50;;;;;;5037855;28;20093;-70
2023/05/17 10:46:21;;;;;;;12.70;2.80;;;12.50;91.50;;;;;;5025689;28;20060;-72
2023/05/17 10:48:51;;;;;;;16.90;3.60;;;12.50;91.50;;;;;;5021324;28;20057;-70
2023/05/17 10:51:28;;;;;;;11.98;2.72;;;12.40;91.10;;;;;;5031151;28;20329;-70
2023/05/17 10:54:11;;;;;;;10.77;2.95;;;12.40;90.80;;;;;;5024438;28;20053;-72
2023/05/17 10:56:46;;;;;;;11.40;2.55;;;12.40;91.00;;;;;;5026542;28;20571;-73
2023/05/17 10:59:22;;;;;;;11.30;2.60;;;12.50;91.10;;;;;;5024830;28;20045;-74
2023/05/17 11:01:55;;;;;;;8.25;2.20;;;12.80;90.10;;;;;;5019450;28;20053;-72
2023/05/17 11:04:24;;;;;;;10.35;2.33;;;12.90;88.00;;;;;;5023059;28;20094;-70
2023/05/17 11:07:13;;;;;;;12.50;2.55;;;13.00;88.30;;;;;;5030094;28;20067;-71
2023/05/17 11:09:39;;;;;;;11.55;2.60;;;13.00;86.20;;;;;;5024302;28;20053;-71
2023/05/17 11:12:06;;;;;;;10.23;2.45;;;13.00;86.70;;;;;;5026470;28;20041;-71
2023/05/17 11:15:09;;;;;;;11.10;2.50;;;13.00;87.20;;;;;;5025639;28;20179;-73
2023/05/17 11:17:53;;;;;;;12.32;3.13;;;13.10;85.10;;;;;;4996133;28;20086;-69
2023/05/17 11:20:24;;;;;;;9.82;2.78;;;13.00;85.60;;;;;;5028620;28;20048;-70
2023/05/17 11:22:57;;;;;;;10.85;2.88;;;13.00;86.20;;;;;;5021619;28;20045;-73
2023/05/17 11:25:26;;;;;;;12.98;2.85;;;13.00;85.10;;;;;;5020801;28;20037;-71
2023/05/17 11:27:53;;;;;;;9.05;2.13;;;13.10;86.10;;;;;;5030364;28;20055;-72
2023/05/17 11:30:30;;;;;;;11.13;2.58;;;13.20;85.10;;;;;;5026604;28;20053;-72
2023/05/17 11:32:59;;;;;;;11.25;3.17;;;13.30;86.40;;;;;;5019911;28;20488;-73
2023/05/17 11:35:32;;;;;;;12.20;2.80;;;13.20;88.40;;;;;;5023831;28;20056;-71
2023/05/17 11:38:13;;;;;;;9.55;2.58;;;13.20;88.50;;;;;;5031035;28;20045;-71
2023/05/17 11:40:40;;;;;;;11.90;2.50;;;13.20;89.00;;;;;;5025758;28;20575;-70
2023/05/17 11:43:22;;;;;;;8.20;2.40;;;13.30;89.80;;;;;;5030503;28;20500;-71
2023/05/17 11:45:49;;;;;;;11.60;2.60;;;13.30;86.40;;;;;;5018863;28;20053;-71
2023/05/17 11:48:16;;;;;;;12.67;2.70;;;13.20;87.20;;;;;;5020502;28;20049;-71
2023/05/17 11:50:44;;;;;;;10.25;2.38;;;13.20;87.90;;;;;;5020052;28;20049;-71
2023/05/17 11:53:10;;;;;;;10.57;2.65;;;13.20;88.80;;;;;;5026682;28;20114;-70
2023/05/17 11:55:46;;;;;;;8.98;2.22;;;13.40;87.00;;;;;;5025902;28;20115;-71
2023/05/17 11:58:17;;;;;;;10.38;2.33;;;13.50;86.70;;;;;;5025347;28;20052;-71
2023/05/17 12:00:43;;;;;;;13.57;3.08;;;13.50;85.90;;;;;;5032506;28;20530;-73
2023/05/17 12:03:18;;;;;;;10.37;3.03;;;13.40;85.80;;;;;;5027739;28;20041;-71
2023/05/17 12:05:46;;;;;;;11.20;2.30;;;13.30;84.70;;;;;;5030285;28;20132;-71
2023/05/17 12:08:11;;;;;;;11.77;2.17;;;13.30;85.70;;;;;;5026224;28;20072;-72
2023/05/17 12:10:50;;;;;;;8.00;2.40;;;13.30;84.20;;;;;;5021165;28;20097;-70
2023/05/17 12:13:16;;;;;;;9.10;2.47;;;13.20;84.60;;;;;;5028346;28;20047;-72
2023/05/17 12:16:05;;;;;;;9.35;2.38;;;13.30;86.10;;;;;;5029857;28;20052;-72
2023/05/17 12:18:38;;;;;;;9.30;2.20;;;13.50;86.20;;;;;;5025722;28;20100;-71
2023/05/17 12:21:04;;;;;;;14.25;3.30;;;13.70;84.50;;;;;;5015299;28;20073;-71
2023/05/17 12:23:35;;;;;;;12.25;2.22;;;13.80;82.10;;;;;;5018695;28;20053;-71
2023/05/17 12:26:22;;;;;;;7.78;1.85;;;13.70;79.90;;;;;;5019209;28;20052;-72
2023/05/17 12:28:55;;;;;;;8.15;2.15;;;13.50;80.50;;;;;;5018497;28;20048;-72
2023/05/17 12:31:28;;;;;;;10.32;2.20;;;13.50;80.80;;;;;;5018694;28;20050;-71
2023/05/17 12:33:55;;;;;;;9.13;2.08;;;13.60;80.10;;;;;;5014683;28;20132;-74
2023/05/17 12:36:21;;;;;;;7.90;2.00;;;13.70;80.10;;;;;;5016338;28;20068;-71
2023/05/17 12:38:47;;;;;;;8.88;2.10;;;13.80;80.10;;;;;;5008464;28;20076;-71
2023/05/17 12:41:15;;;;;;;7.55;1.90;;;13.90;79.90;;;;;;5033725;28;20522;-71
2023/05/17 12:43:43;;;;;;;9.57;2.38;;;13.90;78.10;;;;;;5031455;28;20101;-71
2023/05/17 12:46:12;;;;;;;9.05;2.50;;;14.00;78.20;;;;;;5029500;28;20111;-70